createdAt,value
2022-08-20T00:01:57.402Z,99647.97
2022-08-20T00:12:01.559Z,99670.75
2022-08-20T00:22:03.643Z,99669.84
2022-08-20T00:32:05.432Z,99668.00
2022-08-20T00:42:08.089Z,99673.88
2022-08-20T00:52:16.170Z,99659.97
2022-08-20T01:02:21.723Z,99636.22
2022-08-20T01:12:24.338Z,99616.34
2022-08-20T01:22:57.801Z,99579.25
2022-08-20T01:33:02.744Z,99562.88
2022-08-20T01:43:06.585Z,99540.31
2022-08-20T01:53:25.022Z,99549.34
2022-08-20T02:03:26.967Z,99593.84
2022-08-20T02:13:28.672Z,99590.38
2022-08-20T02:23:30.287Z,99580.56
2022-08-20T02:33:35.569Z,99598.94
2022-08-20T02:43:40.963Z,99608.97
2022-08-20T02:53:42.638Z,99625.38
2022-08-20T03:03:45.459Z,99612.78
2022-08-20T03:13:47.636Z,99643.66
2022-08-20T03:23:49.387Z,99680.94
2022-08-20T03:33:53.581Z,99665.47
2022-08-20T03:43:55.951Z,99669.88
2022-08-20T03:53:58.253Z,99692.19
2022-08-20T04:04:00.516Z,99680.88
2022-08-20T04:14:02.286Z,99668.38
2022-08-20T04:24:06.617Z,99672.94
2022-08-20T04:34:10.354Z,99612.69
2022-08-20T04:44:17.912Z,99665.13
2022-08-20T04:54:19.618Z,99660.50
2022-08-20T05:04:22.365Z,99660.44
2022-08-20T05:14:24.045Z,99668.31
2022-08-20T05:24:26.408Z,99672.28
2022-08-20T05:34:28.107Z,99647.78
2022-08-20T05:44:29.801Z,99660.66
2022-08-20T05:54:32.566Z,99668.31
2022-08-20T06:04:34.481Z,99651.25
2022-08-20T06:14:36.354Z,99662.50
2022-08-20T06:24:38.044Z,99655.09
2022-08-20T06:34:50.323Z,99666.59
2022-08-20T06:44:52.466Z,99681.47
2022-08-20T06:54:54.140Z,99692.69
2022-08-20T07:04:55.906Z,99711.13
2022-08-20T07:14:57.725Z,99730.38
2022-08-20T07:24:59.502Z,99739.00
2022-08-20T07:35:04.647Z,99754.63
2022-08-20T07:45:11.798Z,99764.72
2022-08-20T07:55:15.627Z,99833.22
2022-08-20T08:05:19.126Z,99895.69
2022-08-20T08:15:28.516Z,99916.00
2022-08-20T08:25:30.326Z,99919.66
2022-08-20T08:35:34.366Z,99877.09
2022-08-20T08:45:45.892Z,99886.81
2022-08-20T08:55:48.058Z,99850.63
2022-08-20T09:05:53.825Z,99833.72
2022-08-20T09:15:55.689Z,99886.81
2022-08-20T09:25:57.596Z,99967.00
2022-08-20T09:35:59.279Z,99899.13
2022-08-20T09:46:00.950Z,99861.84
2022-08-20T09:56:04.161Z,99804.38
2022-08-20T10:06:15.205Z,99761.38
2022-08-20T10:16:18.332Z,99746.44
2022-08-20T10:26:20.007Z,99728.66
2022-08-20T10:36:21.768Z,99768.91
2022-08-20T10:46:24.752Z,99783.47
2022-08-20T10:56:26.577Z,99789.28
2022-08-20T11:06:28.482Z,99831.88
2022-08-20T11:16:30.576Z,99813.16
2022-08-20T11:26:32.688Z,99812.69
2022-08-20T11:36:34.696Z,99813.41
2022-08-20T11:46:38.444Z,99805.97
2022-08-20T11:56:40.210Z,99809.91
2022-08-20T12:06:49.839Z,99799.63
2022-08-20T12:16:51.554Z,99774.84
2022-08-20T12:26:54.245Z,99753.28
2022-08-20T12:37:05.286Z,99738.69
2022-08-20T12:47:08.755Z,99721.09
2022-08-20T12:57:34.657Z,99707.03
2022-08-20T13:07:48.308Z,99697.09
2022-08-20T13:17:54.953Z,99696.34
2022-08-20T13:27:59.415Z,99689.31
2022-08-20T13:38:01.382Z,99681.94
2022-08-20T13:48:03.982Z,99685.00
2022-08-20T13:58:08.584Z,99702.69
2022-08-20T14:08:21.007Z,99734.00
2022-08-20T14:18:23.427Z,99703.91
2022-08-20T14:28:25.124Z,99681.81
2022-08-20T14:38:26.927Z,99667.66
2022-08-20T14:48:30.748Z,99659.84
2022-08-20T14:58:32.741Z,99681.91
2022-08-20T15:08:34.513Z,99704.34
2022-08-20T15:18:38.271Z,99712.19
2022-08-20T15:28:40.033Z,99714.22
2022-08-20T15:38:41.949Z,99697.97
2022-08-20T15:48:47.304Z,99710.56
2022-08-20T15:58:55.321Z,99720.03
2022-08-20T16:09:00.346Z,99735.38
2022-08-20T16:19:02.832Z,99717.88
2022-08-20T16:29:12.515Z,99708.88
2022-08-20T16:39:24.274Z,99711.72
2022-08-20T16:49:27.929Z,99725.00
2022-08-20T16:59:30.362Z,99729.88
2022-08-20T17:09:41.261Z,99722.78
2022-08-20T17:20:00.071Z,99726.34
2022-08-20T17:30:20.654Z,99731.19
2022-08-20T17:40:33.902Z,99724.03
2022-08-20T17:50:40.738Z,99712.19
2022-08-20T18:00:44.251Z,99717.94
2022-08-20T18:11:19.930Z,99716.56
2022-08-20T18:21:45.694Z,99699.13
2022-08-20T18:31:53.715Z,99672.97
2022-08-20T18:42:22.307Z,99698.69
2022-08-20T18:52:27.593Z,99702.19
2022-08-20T19:02:33.373Z,99697.78
2022-08-20T19:12:58.869Z,99704.41
2022-08-20T19:23:14.148Z,99688.28
2022-08-20T19:33:43.233Z,99668.16
2022-08-20T19:43:46.612Z,99685.66
2022-08-20T19:53:49.591Z,99672.97
2022-08-20T20:14:23.155Z,99675.59
2022-08-20T20:24:29.540Z,99668.59
2022-08-20T20:34:37.643Z,99654.97
2022-08-20T20:44:57.683Z,99653.25
2022-08-20T20:55:14.344Z,99636.03
2022-08-20T21:05:18.431Z,99651.56
2022-08-20T21:15:23.718Z,99648.94
2022-08-20T21:25:29.664Z,99646.19
2022-08-20T21:35:34.466Z,99652.78
2022-08-20T21:45:37.207Z,99651.28
2022-08-20T21:55:39.888Z,99657.25
2022-08-20T22:05:41.908Z,99653.88
2022-08-20T22:15:43.553Z,99654.97
2022-08-20T22:25:45.265Z,99668.22
2022-08-20T22:35:49.684Z,99644.28
2022-08-20T22:45:57.477Z,99625.72
2022-08-20T22:55:59.103Z,99628.50
2022-08-20T23:06:01.056Z,99628.66
2022-08-20T23:16:03.524Z,99616.38
2022-08-20T23:26:06.503Z,99616.53
2022-08-20T23:36:10.538Z,99594.75
2022-08-20T23:46:12.853Z,99592.88
2022-08-20T23:56:14.595Z,99588.44
